• Join FlightAware (Why Join?)
  • Login
  • US Flag 
03:22AM EST


 

Airport Tracker/Info


-or-


 

Live Flight TrackerFlight Track Log ✈ N415JA ✈ 20-Feb-2014 ✈ KTMB - KSDF

Flight Track Log - Related Links

Times and Time Zones

All times are in EST time to prevent confusion due to time zone crossing. See the N415JA flight status page for this flight to view local times or setup timezone preferences in your user account.

Time Position Orientation Groundspeed Altitude Reporting Facility
EST Latitude Longitude Course Direction KTS MPH feet Rate Location/Type
10:28AM 25.6400 -80.4197 81° East 124 143 400  Level Miami Center
10:29AM 25.6453 -80.3808 81° East 185 213 1,500 2,220 Climbing Miami Center
10:30AM 25.6000 -80.3564 154° Southeast 232 267 4,300 3,000 Climbing Miami Center
10:31AM 25.5692 -80.4222 243° Southwest 252 290 7,600 3,120 Climbing Miami Center
10:31AM 25.5617 -80.4658 259° West 289 333 9,100 2,640 Climbing Miami Center
10:32AM 25.5839 -80.4964 309° West 293 337 10,300 2,100 Climbing Miami Center
10:32AM 25.6236 -80.5000 355° North 290 334 11,200 1,980 Climbing Miami Center
10:33AM 25.7111 -80.5094 354° North 308 354 13,300 1,860 Climbing Miami Center
10:34AM 25.7964 -80.5167 356° North 329 379 15,000 1,800 Climbing Miami Center
10:35AM 25.8900 -80.5311 352° North 334 384 16,900 1,860 Climbing Miami Center
10:36AM 25.9856 -80.5594 345° North 334 384 18,800 1,980 Climbing Miami Center
10:37AM 26.0789 -80.5856 346° North 334 384 20,900 1,740 Climbing Miami Center
10:38AM 26.1719 -80.6161 344° North 339 390 22,300 1,500 Climbing Miami Center
10:39AM 26.2672 -80.6492 343° North 345 397 24,000 1,680 Climbing Miami Center
10:40AM 26.3814 -80.6808 346° North 362 417 25,700 1,500 Climbing Miami Center
10:41AM 26.4722 -80.7117 343° North 369 425 27,100 1,320 Climbing Miami Center
10:42AM 26.5864 -80.7453 345° North 381 438 28,400 1,200 Climbing Miami Center
10:43AM 26.6942 -80.7769 345° North 392 451 29,600 1,140 Climbing Miami Center
10:44AM 26.8017 -80.8083 345° North 392 451 30,700 1,020 Climbing Miami Center
10:45AM 26.9114 -80.8447 344° North 392 451 31,700 1,080 Climbing Miami Center
10:46AM 27.0192 -80.8764 345° North 397 457 32,900 1,020 Climbing Miami Center
10:47AM 27.1289 -80.9106 345° North 397 457 33,800 1,140 Climbing Miami Center
10:48AM 27.2344 -80.9422 345° North 397 457 35,200 960 Climbing Miami Center
10:49AM 27.3233 -80.9711 344° North 397 457 35,800 600 Climbing Miami Center
10:50AM 27.4414 -81.0058 345° North 390 449 36,500 600 Climbing Miami Center
10:51AM 27.5492 -81.0378 345° North 395 455 37,000 240 Climbing Miami Center
10:52AM 27.6586 -81.0697 346° North 398 458 37,000  Level Miami Center
10:53AM 27.7661 -81.1089 342° North 403 464 37,000  Level Miami Center
10:54AM 27.8819 -81.1439 345° North 414 476 37,000  Level Miami Center
10:55AM 27.9936 -81.1808 344° North 414 476 37,000  Level Miami Center
10:56AM 28.0947 -81.2131 344° North 414 476 37,000  Level Miami Center
10:57AM 28.2064 -81.2481 345° North 414 476 37,000  Level Miami Center
10:58AM 28.3306 -81.2858 345° North 414 476 37,000  Level Miami Center
10:59AM 28.4461 -81.3211 345° North 421 484 37,000  Level Miami Center
11:00AM 28.5597 -81.3586 344° North 421 484 37,000  Level Miami Center
11:02AM 28.6839 -81.3992 344° North 420 483 37,000  Level Jacksonville Center
11:03AM 28.7992 -81.4356 345° North 420 483 37,000  Level Jacksonville Center
11:04AM 28.9122 -81.4719 344° North 420 483 37,000  Level Jacksonville Center
11:05AM 29.0253 -81.5081 344° North 420 483 37,000  Level Jacksonville Center
11:06AM 29.1383 -81.5447 344° North 420 483 37,000  Level Jacksonville Center
11:07AM 29.2619 -81.5833 345° North 415 478 37,000  Level Jacksonville Center
11:08AM 29.3772 -81.6222 344° North 415 478 37,000  Level Jacksonville Center
11:09AM 29.4903 -81.6592 344° North 420 483 37,000  Level Jacksonville Center
11:10AM 29.6075 -81.6933 346° North 420 483 37,000  Level Jacksonville Center
11:11AM 29.7206 -81.7328 343° North 420 483 37,000  Level Jacksonville Center
11:12AM 29.8356 -81.7697 344° North 420 483 37,000  Level Jacksonville Center
11:13AM 29.9508 -81.8067 344° North 420 483 37,000  Level Jacksonville Center
11:14AM 30.0639 -81.8414 345° North 420 483 37,000  Level Jacksonville Center
11:15AM 30.1789 -81.8786 344° North 420 483 37,000  Level Jacksonville Center
11:16AM 30.2961 -81.9206 343° North 425 489 37,000  Level Jacksonville Center
11:17AM 30.4072 -81.9606 343° North 425 489 37,000  Level Jacksonville Center
11:18AM 30.5222 -82.0053 341° North 433 498 37,000  Level Jacksonville Center
11:19AM 30.6269 -82.0500 340° North 425 489 37,000  Level Jacksonville Center
11:20AM 30.7400 -82.0925 342° North 425 489 37,000  Level Jacksonville Center
11:21AM 30.8531 -82.1375 341° North 425 489 37,000  Level Jacksonville Center
11:22AM 30.9661 -82.1778 343° North 425 489 37,000  Level Jacksonville Center
11:23AM 31.0769 -82.2256 340° North 425 489 37,000  Level Jacksonville Center
11:24AM 31.1919 -82.2683 342° North 425 489 37,000  Level Jacksonville Center
11:25AM 31.3050 -82.3089 343° North 425 489 37,000  Level Jacksonville Center
11:26AM 31.4325 -82.3544 343° North 425 489 37,000  Level Jacksonville Center
11:27AM 31.5456 -82.3978 342° North 425 489 37,000  Level Jacksonville Center
11:28AM 31.6583 -82.4433 341° North 425 489 37,000  Level Jacksonville Center
11:30AM 31.9086 -82.5417 342° North 431 496 37,000  Level Atlanta Center
11:31AM 32.0219 -82.5861 342° North 425 489 37,000  Level Atlanta Center
11:32AM 32.1350 -82.6311 341° North 425 489 37,000  Level Atlanta Center
11:33AM 32.2503 -82.6758 342° North 425 489 37,000  Level Atlanta Center
11:34AM 32.3658 -82.7233 341° North 430 495 37,000  Level Atlanta Center
11:35AM 32.4747 -82.7636 343° North 425 489 37,000  Level Atlanta Center
11:36AM 32.5858 -82.8086 341° North 419 482 37,000  Level Atlanta Center
11:37AM 32.6989 -82.8539 341° North 424 488 37,000  Level Atlanta Center
11:38AM 32.8122 -82.8994 341° North 424 488 37,000  Level Atlanta Center
11:39AM 32.9231 -82.9450 341° North 424 488 37,000  Level Atlanta Center
11:40AM 33.0383 -82.9906 342° North 429 494 37,000  Level Atlanta Center
11:41AM 33.1578 -83.0414 340° North 424 488 37,000  Level Atlanta Center
11:42AM 33.2750 -83.0872 342° North 424 488 37,000  Level Atlanta Center
11:43AM 33.3839 -83.1308 342° North 424 488 37,000  Level Atlanta Center
11:44AM 33.4969 -83.1794 340° North 429 494 37,000  Level Atlanta Center
11:45AM 33.5994 -83.2183 342° North 429 494 37,000  Level Atlanta Center
11:46AM 33.7103 -83.2622 342° North 429 494 37,000  Level Atlanta Center
11:47AM 33.8233 -83.3086 341° North 429 494 37,000  Level Atlanta Center
11:48AM 33.9342 -83.3528 342° North 420 483 37,000  Level Atlanta Center
11:49AM 34.0472 -83.3969 342° North 420 483 37,000  Level Atlanta Center
11:50AM 34.1581 -83.4439 341° North 420 483 37,000  Level Atlanta Center
11:51AM 34.2711 -83.4908 341° North 425 489 37,000  Level Atlanta Center
11:52AM 34.3817 -83.5328 343° North 425 489 37,000  Level Atlanta Center
11:53AM 34.4947 -83.5825 340° North 425 489 37,000  Level Atlanta Center
11:54AM 34.6097 -83.6300 341° North 425 489 37,000  Level Atlanta Center
11:55AM 34.7308 -83.6772 342° North 425 489 37,000  Level Atlanta Center
11:56AM 34.8436 -83.7275 340° North 425 489 37,000  Level Atlanta Center
11:57AM 34.9544 -83.7778 340° North 425 489 37,000  Level Atlanta Center
11:58AM 35.0672 -83.8256 341° North 425 489 37,000  Level Atlanta Center
11:59AM 35.1800 -83.8736 341° North 430 495 37,000  Level Atlanta Center
12:00PM 35.2925 -83.9192 342° North 430 495 37,000  Level Atlanta Center
12:01PM 35.4053 -83.9700 340° North 430 495 37,000 -60 Level Atlanta Center
12:02PM 35.5181 -84.0158 342° North 430 495 36,900 -600 Descending Atlanta Center
12:03PM 35.6264 -84.0617 341° North 420 483 35,900 -960 Descending Atlanta Center
12:04PM 35.7350 -84.1078 341° North 415 478 35,000 -1,140 Descending Atlanta Center
12:05PM 35.8475 -84.1411 346° North 415 478 33,700 -1,620 Descending Atlanta Center
12:06PM 35.9664 -84.1644 351° North 415 478 31,800 -1,320 Descending Atlanta Center
12:08PM 36.1672 -84.2456 342° North 421 484 30,000 -660 Descending Indianapolis Center
12:09PM 36.2786 -84.2969 340° North 421 484 30,000  Level Indianapolis Center
12:10PM 36.4167 -84.3622 339° North 438 504 30,000  Level Indianapolis Center
12:11PM 36.5167 -84.4097 339° North 443 510 30,000 -840 Level Indianapolis Center
12:12PM 36.6500 -84.4717 340° North 439 505 28,300 -1,860 Descending Indianapolis Center
12:13PM 36.7575 -84.5239 339° North 422 486 26,300 -1,680 Descending Indianapolis Center
12:14PM 36.8600 -84.5711 340° North 415 478 24,900 -1,140 Descending Indianapolis Center
12:15PM 36.9644 -84.6214 339° North 408 470 24,000 -1,080 Descending Indianapolis Center
12:16PM 37.0772 -84.6764 339° North 405 466 22,800 -1,620 Descending Indianapolis Center
12:17PM 37.1836 -84.7250 340° North 407 468 20,700 -2,040 Descending Indianapolis Center
12:18PM 37.2825 -84.7736 339° North 388 447 18,700 -1,920 Descending Indianapolis Center
12:19PM 37.3831 -84.8225 339° North 387 445 16,800 -2,040 Descending Indianapolis Center
12:20PM 37.4839 -84.8706 339° North 387 445 14,600 -2,220 Descending Indianapolis Center
12:21PM 37.5944 -84.9244 339° North 366 421 12,300 -1,920 Descending Indianapolis Center
12:22PM 37.6769 -84.9853 330° Northwest 349 402 10,700 -1,140 Descending Indianapolis Center
12:23PM 37.7372 -85.0683 313° West 329 379 10,000 -360 Descending Indianapolis Center
12:24PM 37.7964 -85.1483 313° West 315 362 10,000 -420 Level Indianapolis Center
12:25PM 37.8553 -85.2294 313° West 288 331 9,200 -1,380 Descending Indianapolis Center
12:26PM 37.9003 -85.2961 311° West 257 296 7,200 -1,620 Descending Indianapolis Center
12:27PM 37.9481 -85.3636 312° West 256 295 6,000 -600 Descending Indianapolis Center
12:28PM 37.9939 -85.4292 312° West 251 289 6,000  Level Indianapolis Center
12:29PM 38.0439 -85.4961 313° West 254 292 6,000  Level Indianapolis Center
12:30PM 38.0933 -85.5642 313° West 257 296 6,000 -360 Level Indianapolis Center
12:31PM 38.1658 -85.5997 339° North 279 321 5,300 -900 Descending Indianapolis Center
12:32PM 38.2447 -85.6244 346° North 292 336 4,200 -660 Descending Indianapolis Center
12:33PM 38.3164 -85.6525 343° North 285 328 4,000 -420 Descending Indianapolis Center
12:35PM 38.3572 -85.6983 319° Northwest 247 284 3,400 -540 Descending Indianapolis Center
12:36PM 38.3408 -85.7667 253° West 202 232 3,000 -300 Descending Indianapolis Center
12:37PM 38.3022 -85.7669 180° South 164 189 2,800 -420 Descending Indianapolis Center
12:38PM 38.2622 -85.7575 169° South 145 167 2,200 -600 Descending Indianapolis Center